createdAt,value
2022-08-10T00:01:51.205Z,69.13
2022-08-10T00:04:23.724Z,68.83
2022-08-10T00:06:53.601Z,68.40
2022-08-10T00:09:22.178Z,68.89
2022-08-10T00:11:49.488Z,68.57
2022-08-10T00:14:16.755Z,68.42
2022-08-10T00:16:43.937Z,68.42
2022-08-10T00:19:11.156Z,68.32
2022-08-10T00:21:38.344Z,68.95
2022-08-10T00:24:05.470Z,69.45
2022-08-10T00:27:58.522Z,68.71
2022-08-10T00:29:20.094Z,68.94
2022-08-10T00:31:58.226Z,69.09
2022-08-10T00:34:28.348Z,69.39
2022-08-10T00:36:56.479Z,68.59
2022-08-10T00:39:24.023Z,68.13
2022-08-10T00:42:02.214Z,67.75
2022-08-10T00:44:43.610Z,67.54
2022-08-10T00:47:22.767Z,67.41
2022-08-10T00:50:00.945Z,67.75
2022-08-10T00:52:31.596Z,67.63
2022-08-10T00:55:00.715Z,68.46
2022-08-10T00:57:28.072Z,69.18
2022-08-10T00:59:57.839Z,69.12
2022-08-10T01:02:32.660Z,69.00
2022-08-10T01:05:03.205Z,69.19
2022-08-10T01:07:52.509Z,69.11
2022-08-10T01:10:55.001Z,69.16
2022-08-10T01:13:25.450Z,69.12
2022-08-10T01:15:58.348Z,69.15
2022-08-10T01:18:38.402Z,69.67
2022-08-10T01:21:24.189Z,69.91
2022-08-10T01:24:13.151Z,70.04
2022-08-10T01:26:47.765Z,70.22
2022-08-10T01:29:28.801Z,70.56
2022-08-10T01:32:03.628Z,70.90
2022-08-10T01:34:40.099Z,70.99
2022-08-10T01:37:14.858Z,71.09
2022-08-10T01:39:47.340Z,71.55
2022-08-10T01:42:18.635Z,71.52
2022-08-10T01:44:55.602Z,71.25
2022-08-10T01:47:46.543Z,71.41
2022-08-10T01:50:23.003Z,70.43
2022-08-10T01:52:53.317Z,69.49
2022-08-10T01:55:21.609Z,69.25
2022-08-10T01:57:51.090Z,69.42
2022-08-10T02:00:19.252Z,69.42
2022-08-10T02:02:47.951Z,69.19
2022-08-10T02:05:16.907Z,68.73
2022-08-10T02:07:47.094Z,68.64
2022-08-10T02:10:19.356Z,68.60
2022-08-10T02:12:48.442Z,68.61
2022-08-10T02:15:19.670Z,67.73
2022-08-10T02:18:01.884Z,68.73
2022-08-10T02:20:35.363Z,68.41
2022-08-10T02:23:08.814Z,67.93
2022-08-10T02:25:41.951Z,68.20
2022-08-10T02:28:29.970Z,67.83
2022-08-10T02:31:11.618Z,68.53
2022-08-10T02:33:56.495Z,68.64
2022-08-10T02:36:29.659Z,69.48
2022-08-10T02:39:01.175Z,70.23
2022-08-10T02:45:12.667Z,70.52
2022-08-10T02:45:24.118Z,70.80
2022-08-10T02:47:50.825Z,71.16
2022-08-10T02:50:29.500Z,71.65
2022-08-10T02:53:56.155Z,72.24
2022-08-10T02:56:30.967Z,73.23
2022-08-10T02:59:29.005Z,73.38
2022-08-10T03:02:10.575Z,72.96
2022-08-10T03:04:56.161Z,73.10
2022-08-10T03:07:43.478Z,72.82
2022-08-10T03:10:41.400Z,73.04
2022-08-10T03:13:10.719Z,72.88
2022-08-10T03:15:40.239Z,72.92
2022-08-10T03:18:09.122Z,73.12
2022-08-10T03:20:40.327Z,73.35
2022-08-10T03:23:14.132Z,74.01
2022-08-10T03:25:53.407Z,74.04
2022-08-10T03:28:24.219Z,74.57
2022-08-10T03:30:53.315Z,74.78
2022-08-10T03:33:22.514Z,74.48
2022-08-10T03:36:43.261Z,75.08
2022-08-10T03:38:40.987Z,75.42
2022-08-10T03:41:15.955Z,75.11
2022-08-10T03:43:47.871Z,75.21
2022-08-10T03:46:16.587Z,75.67
2022-08-10T03:48:49.209Z,75.79
2022-08-10T03:51:19.721Z,75.98
2022-08-10T03:54:05.627Z,76.24
2022-08-10T03:56:39.092Z,77.07
2022-08-10T03:59:09.930Z,76.69
2022-08-10T04:02:46.396Z,76.37
2022-08-10T04:04:25.912Z,76.62
2022-08-10T04:06:56.010Z,77.27
2022-08-10T04:09:54.227Z,77.56
2022-08-10T04:12:20.448Z,77.71
2022-08-10T04:14:51.040Z,77.83
2022-08-10T04:18:05.222Z,77.81
2022-08-10T04:20:50.194Z,78.26
2022-08-10T04:23:24.545Z,78.44
2022-08-10T04:25:56.130Z,78.26
2022-08-10T04:28:24.498Z,78.34
2022-08-10T04:30:54.073Z,78.86
2022-08-10T04:33:23.619Z,77.90
2022-08-10T04:35:52.562Z,78.15
2022-08-10T04:38:21.468Z,77.83
2022-08-10T04:40:49.198Z,77.67
2022-08-10T04:43:16.558Z,76.91
2022-08-10T04:45:48.612Z,77.22
2022-08-10T04:48:43.482Z,76.83
2022-08-10T04:51:20.927Z,76.59
2022-08-10T04:54:02.683Z,76.48
2022-08-10T04:57:03.052Z,76.30
2022-08-10T04:59:30.207Z,76.58
2022-08-10T05:02:22.252Z,76.79
2022-08-10T05:04:44.746Z,76.82
2022-08-10T05:07:17.125Z,76.55
2022-08-10T05:10:02.190Z,77.18
2022-08-10T05:12:38.834Z,77.32
2022-08-10T05:15:14.705Z,77.17
2022-08-10T05:18:06.802Z,77.93
2022-08-10T05:20:33.961Z,78.24
2022-08-10T05:23:01.299Z,78.22
2022-08-10T05:25:29.912Z,78.65
2022-08-10T05:28:04.410Z,78.87
2022-08-10T05:30:34.429Z,78.52
2022-08-10T05:33:05.256Z,79.00
2022-08-10T05:35:56.297Z,78.60
2022-08-10T05:38:26.741Z,78.58
2022-08-10T05:40:54.730Z,78.75
2022-08-10T05:43:22.450Z,78.74
2022-08-10T05:46:16.809Z,78.57
2022-08-10T05:48:56.759Z,78.44
2022-08-10T05:51:29.428Z,78.12
2022-08-10T05:54:04.162Z,77.98
2022-08-10T05:56:54.191Z,77.79
2022-08-10T06:00:12.615Z,77.24
2022-08-10T06:02:33.206Z,77.38
2022-08-10T06:05:11.484Z,77.67
2022-08-10T06:07:42.838Z,77.66
2022-08-10T06:10:12.719Z,77.99
2022-08-10T06:12:53.956Z,78.21
2022-08-10T06:15:50.802Z,77.67
2022-08-10T06:18:17.253Z,77.79
2022-08-10T06:20:46.178Z,77.14
2022-08-10T06:23:14.904Z,76.71
2022-08-10T06:26:12.269Z,76.57
2022-08-10T06:28:34.148Z,76.69
2022-08-10T06:31:04.749Z,76.64
2022-08-10T06:33:34.954Z,76.50
2022-08-10T06:36:04.161Z,76.01
2022-08-10T06:38:34.035Z,76.31
2022-08-10T06:41:08.628Z,75.65
2022-08-10T06:43:40.717Z,75.96
2022-08-10T06:46:15.662Z,74.94
2022-08-10T06:48:57.667Z,75.52
2022-08-10T06:51:30.984Z,75.34
2022-08-10T06:54:02.453Z,74.08
2022-08-10T06:56:36.708Z,74.46
2022-08-10T06:59:22.863Z,72.63
2022-08-10T07:01:55.082Z,72.41
2022-08-10T07:04:32.456Z,72.10
2022-08-10T07:07:06.672Z,70.94
2022-08-10T07:09:40.415Z,70.83
2022-08-10T07:12:09.970Z,70.74
2022-08-10T07:14:40.813Z,70.75
2022-08-10T07:17:15.152Z,70.07
2022-08-10T07:19:56.165Z,70.20
2022-08-10T07:23:22.774Z,70.30
2022-08-10T07:25:25.639Z,70.00
2022-08-10T07:28:00.108Z,71.03
2022-08-10T07:30:37.429Z,70.85
2022-08-10T07:33:06.424Z,70.99
2022-08-10T07:35:42.791Z,70.26
2022-08-10T07:38:17.707Z,70.44
2022-08-10T07:40:48.793Z,70.06
2022-08-10T07:43:18.223Z,69.39
2022-08-10T07:45:48.012Z,69.69
2022-08-10T07:48:47.454Z,68.77
2022-08-10T07:51:18.680Z,67.91
2022-08-10T07:53:51.530Z,67.57
2022-08-10T07:56:47.407Z,67.48
2022-08-10T07:59:15.105Z,67.33
2022-08-10T08:01:53.503Z,67.24
2022-08-10T08:04:24.365Z,66.34
2022-08-10T08:06:53.338Z,66.53
2022-08-10T08:09:22.208Z,66.39
2022-08-10T08:11:53.429Z,66.37
2022-08-10T08:14:21.970Z,65.95
2022-08-10T08:16:52.940Z,65.79
2022-08-10T08:19:37.690Z,64.43
2022-08-10T08:24:09.602Z,64.59
2022-08-10T08:24:59.325Z,64.17
2022-08-10T08:27:29.006Z,63.76
2022-08-10T08:29:56.414Z,63.78
2022-08-10T08:32:26.654Z,64.20
2022-08-10T08:35:02.689Z,64.01
2022-08-10T08:38:33.202Z,63.98
2022-08-10T08:40:35.351Z,63.64
2022-08-10T08:43:21.601Z,63.00
2022-08-10T08:46:13.186Z,63.20
2022-08-10T08:48:55.527Z,62.43
2022-08-10T08:52:09.870Z,61.68
2022-08-10T08:54:57.677Z,60.73
2022-08-10T08:57:51.708Z,59.86
2022-08-10T09:00:41.744Z,59.12
2022-08-10T09:03:47.382Z,59.31
2022-08-10T09:06:26.987Z,59.38
2022-08-10T09:09:15.621Z,58.47
2022-08-10T09:12:11.270Z,58.32
2022-08-10T09:14:52.848Z,58.20
2022-08-10T09:17:35.583Z,57.67
2022-08-10T09:20:22.652Z,57.57
2022-08-10T09:22:57.307Z,56.52
2022-08-10T09:25:32.516Z,56.11
2022-08-10T09:28:05.606Z,56.31
2022-08-10T09:31:10.808Z,55.96
2022-08-10T09:36:22.799Z,55.98
2022-08-10T09:37:02.691Z,56.20
2022-08-10T09:40:48.472Z,55.85
2022-08-10T09:43:14.261Z,55.05
2022-08-10T09:45:45.890Z,54.97
2022-08-10T09:48:30.525Z,54.87
2022-08-10T09:51:44.314Z,55.61
2022-08-10T09:54:39.763Z,54.13
2022-08-10T09:57:44.467Z,54.34
2022-08-10T10:00:21.827Z,54.34
2022-08-10T10:03:04.132Z,53.42
2022-08-10T10:05:51.105Z,53.13
2022-08-10T10:08:43.077Z,51.01
2022-08-10T10:11:42.380Z,51.64
2022-08-10T10:14:21.796Z,50.62
2022-08-10T10:17:09.340Z,50.23
2022-08-10T10:19:56.487Z,50.16
2022-08-10T10:22:29.703Z,50.64
2022-08-10T10:24:56.972Z,50.02
2022-08-10T10:27:48.225Z,49.90
2022-08-10T10:30:17.361Z,49.61
2022-08-10T10:33:03.267Z,48.71
2022-08-10T10:35:55.112Z,48.53
2022-08-10T10:38:28.976Z,48.57
2022-08-10T10:41:14.127Z,48.46
2022-08-10T10:43:50.480Z,48.44
2022-08-10T10:46:29.988Z,48.26
2022-08-10T10:49:38.228Z,47.77
2022-08-10T10:52:18.384Z,47.64
2022-08-10T10:54:55.793Z,47.64
2022-08-10T10:57:59.318Z,46.63
2022-08-10T11:00:24.163Z,47.36
2022-08-10T11:03:48.702Z,47.59
2022-08-10T11:06:52.723Z,47.13
2022-08-10T11:10:06.977Z,46.51
2022-08-10T11:12:45.110Z,46.85
2022-08-10T11:15:28.567Z,46.69
2022-08-10T11:18:01.878Z,46.18
2022-08-10T11:20:42.733Z,45.99
2022-08-10T11:23:31.797Z,45.07
2022-08-10T11:26:22.853Z,45.29
2022-08-10T11:28:58.092Z,45.45
2022-08-10T11:31:34.127Z,45.00
2022-08-10T11:34:47.062Z,45.58
2022-08-10T11:37:05.667Z,45.56
2022-08-10T11:39:48.620Z,45.19
2022-08-10T11:42:36.137Z,45.48
2022-08-10T11:45:12.251Z,44.72
2022-08-10T11:47:56.988Z,44.24
2022-08-10T11:50:45.760Z,44.34
2022-08-10T11:53:22.545Z,44.60
2022-08-10T11:55:55.894Z,44.44
2022-08-10T11:58:48.073Z,44.25
2022-08-10T12:01:20.845Z,44.10
2022-08-10T12:03:49.270Z,44.67
2022-08-10T12:06:39.230Z,43.57
2022-08-10T12:10:10.473Z,44.00
2022-08-10T12:11:59.418Z,43.71
2022-08-10T12:14:46.518Z,43.42
2022-08-10T12:17:22.974Z,43.44
2022-08-10T12:20:16.455Z,42.17
2022-08-10T12:22:50.796Z,42.53
2022-08-10T12:25:56.080Z,42.45
2022-08-10T12:28:50.783Z,42.84
2022-08-10T12:31:18.773Z,42.68
2022-08-10T12:34:29.534Z,42.29
2022-08-10T12:37:22.699Z,41.42
2022-08-10T12:40:33.982Z,41.94
2022-08-10T12:44:04.323Z,41.13
2022-08-10T12:46:32.964Z,40.68
2022-08-10T12:49:13.556Z,40.78
2022-08-10T12:51:49.641Z,41.43
2022-08-10T12:54:33.000Z,41.15
2022-08-10T12:57:07.862Z,41.56
2022-08-10T12:59:43.423Z,41.06
2022-08-10T13:02:28.993Z,41.23
2022-08-10T13:04:59.361Z,41.56
2022-08-10T13:08:24.231Z,41.82
2022-08-10T13:10:21.189Z,40.99
2022-08-10T13:12:52.705Z,40.63
2022-08-10T13:15:50.043Z,40.66
2022-08-10T13:18:40.888Z,40.31
2022-08-10T13:21:20.419Z,40.75
2022-08-10T13:24:03.959Z,40.94
2022-08-10T13:26:38.934Z,41.10
2022-08-10T13:29:28.221Z,40.17
2022-08-10T13:32:09.659Z,40.71
2022-08-10T13:34:46.511Z,40.58
2022-08-10T13:37:19.491Z,40.41
2022-08-10T13:39:58.351Z,40.77
2022-08-10T13:42:33.027Z,40.77
2022-08-10T13:45:07.790Z,40.52
2022-08-10T13:47:47.913Z,40.53
2022-08-10T13:50:33.195Z,40.53
2022-08-10T13:53:09.997Z,40.36
2022-08-10T13:55:55.514Z,40.53
2022-08-10T13:58:29.558Z,41.03
2022-08-10T14:00:59.819Z,41.38
2022-08-10T14:03:28.697Z,40.28
2022-08-10T14:05:58.425Z,40.47
2022-08-10T14:08:29.480Z,40.25
2022-08-10T14:11:09.799Z,40.50
2022-08-10T14:13:44.503Z,40.29
2022-08-10T14:16:13.591Z,40.45
2022-08-10T14:18:44.962Z,39.78
2022-08-10T14:21:14.750Z,40.34
2022-08-10T14:23:48.593Z,39.54
2022-08-10T14:26:24.919Z,39.57
2022-08-10T14:29:02.569Z,39.55
2022-08-10T14:31:33.845Z,39.44
2022-08-10T14:34:06.097Z,39.32
2022-08-10T14:36:51.250Z,39.53
2022-08-10T14:39:26.884Z,40.26
2022-08-10T14:42:03.105Z,39.92
2022-08-10T14:44:48.679Z,39.53
2022-08-10T14:47:53.245Z,39.36
2022-08-10T14:50:09.835Z,39.68
2022-08-10T14:52:44.146Z,39.81
2022-08-10T14:55:19.560Z,38.62
2022-08-10T14:58:20.399Z,39.21
2022-08-10T15:00:43.008Z,39.23
2022-08-10T15:04:01.027Z,39.00
2022-08-10T15:06:18.082Z,39.36
2022-08-10T15:08:47.521Z,39.15
2022-08-10T15:12:12.382Z,39.07
2022-08-10T15:14:29.332Z,39.38
2022-08-10T15:16:55.340Z,39.81
2022-08-10T15:20:01.767Z,39.68
2022-08-10T15:22:36.571Z,39.92
2022-08-10T15:25:18.227Z,39.25
2022-08-10T15:27:53.418Z,39.99
2022-08-10T15:30:33.202Z,40.38
2022-08-10T15:33:59.515Z,39.72
2022-08-10T15:36:34.949Z,40.54
2022-08-10T15:39:58.377Z,39.80
2022-08-10T15:42:02.858Z,40.85
2022-08-10T15:44:39.807Z,40.64
2022-08-10T15:47:27.239Z,40.64
2022-08-10T15:50:31.499Z,40.72
2022-08-10T15:53:08.315Z,41.63
2022-08-10T15:55:49.841Z,41.36
2022-08-10T15:58:40.011Z,42.08
2022-08-10T16:02:15.119Z,41.98
2022-08-10T16:04:10.903Z,43.03
2022-08-10T16:06:49.806Z,42.60
2022-08-10T16:10:24.136Z,43.84
2022-08-10T16:12:17.463Z,44.11
2022-08-10T16:15:00.260Z,43.39
2022-08-10T16:17:28.826Z,43.03
2022-08-10T16:19:58.812Z,43.28
2022-08-10T16:22:37.227Z,43.84
2022-08-10T16:25:14.506Z,44.21
2022-08-10T16:27:44.179Z,44.42
2022-08-10T16:30:12.466Z,44.92
2022-08-10T16:32:41.694Z,44.58
2022-08-10T16:35:15.657Z,44.78
2022-08-10T16:37:57.908Z,45.42
2022-08-10T16:40:29.705Z,45.69
2022-08-10T16:43:00.131Z,45.65
2022-08-10T16:45:41.602Z,45.77
2022-08-10T16:48:12.227Z,46.13
2022-08-10T16:50:51.360Z,46.26
2022-08-10T16:53:21.395Z,46.63
2022-08-10T16:55:52.707Z,47.32
2022-08-10T16:58:27.541Z,46.61
2022-08-10T17:01:02.601Z,47.22
2022-08-10T17:04:07.744Z,46.81
2022-08-10T17:06:30.779Z,47.27
2022-08-10T17:09:00.947Z,47.04
2022-08-10T17:11:31.853Z,47.66
2022-08-10T17:14:01.307Z,47.57
2022-08-10T17:16:38.597Z,48.59
2022-08-10T17:19:13.255Z,48.46
2022-08-10T17:21:51.390Z,47.85
2022-08-10T17:24:23.991Z,48.30
2022-08-10T17:26:51.681Z,48.52
2022-08-10T17:29:58.523Z,48.89
2022-08-10T17:32:13.644Z,49.27
2022-08-10T17:34:46.853Z,49.41
2022-08-10T17:37:20.146Z,49.39
2022-08-10T17:39:56.353Z,49.41
2022-08-10T17:42:25.739Z,49.65
2022-08-10T17:44:54.457Z,49.39
2022-08-10T17:47:25.346Z,50.04
2022-08-10T17:49:59.209Z,50.51
2022-08-10T17:52:31.988Z,50.40
2022-08-10T17:55:07.852Z,50.18
2022-08-10T17:57:37.948Z,50.32
2022-08-10T18:00:13.188Z,50.16
2022-08-10T18:02:44.086Z,50.05
2022-08-10T18:05:12.911Z,49.83
2022-08-10T18:07:50.742Z,50.11
2022-08-10T18:10:21.345Z,50.52
2022-08-10T18:12:56.134Z,50.11
2022-08-10T18:15:28.218Z,49.80
2022-08-10T18:18:03.316Z,50.44
2022-08-10T18:20:39.725Z,49.38
2022-08-10T18:23:08.525Z,51.35
2022-08-10T18:25:39.769Z,49.58
2022-08-10T18:28:19.352Z,49.48
2022-08-10T18:30:51.502Z,49.15
2022-08-10T18:33:24.314Z,51.79
2022-08-10T18:35:53.492Z,49.73
2022-08-10T18:38:22.451Z,49.74
2022-08-10T18:41:27.453Z,50.70
2022-08-10T18:44:12.213Z,50.96
2022-08-10T18:47:00.037Z,50.64
2022-08-10T18:49:39.267Z,50.88
2022-08-10T18:52:12.406Z,51.79
2022-08-10T18:54:51.517Z,51.72
2022-08-10T18:57:46.513Z,51.61
2022-08-10T19:00:18.058Z,52.13
2022-08-10T19:03:03.183Z,51.48
2022-08-10T19:05:59.193Z,52.75
2022-08-10T19:08:48.856Z,53.92
2022-08-10T19:12:02.351Z,52.92
2022-08-10T19:14:37.260Z,52.60
2022-08-10T19:17:19.786Z,53.32
2022-08-10T19:19:52.898Z,52.80
2022-08-10T19:22:26.456Z,54.18
2022-08-10T19:25:01.481Z,52.91
2022-08-10T19:27:33.314Z,53.39
2022-08-10T19:30:12.787Z,53.98
2022-08-10T19:33:05.674Z,53.26
2022-08-10T19:36:03.567Z,53.38
2022-08-10T19:38:50.266Z,54.38
2022-08-10T19:41:32.179Z,54.93
2022-08-10T19:44:31.509Z,53.89
2022-08-10T19:47:31.027Z,55.33
2022-08-10T19:50:19.476Z,55.42
2022-08-10T19:53:04.553Z,55.57
2022-08-10T19:56:43.593Z,55.55
2022-08-10T20:00:15.165Z,55.09
2022-08-10T20:02:22.124Z,55.89
2022-08-10T20:05:06.038Z,55.89
2022-08-10T20:07:42.592Z,56.23
2022-08-10T20:10:26.828Z,57.01
2022-08-10T20:13:15.011Z,56.45
2022-08-10T20:15:48.153Z,56.91
2022-08-10T20:18:26.346Z,57.38
2022-08-10T20:21:08.746Z,56.77
2022-08-10T20:23:36.867Z,56.17
2022-08-10T20:26:45.276Z,56.79
2022-08-10T20:29:57.467Z,56.81
2022-08-10T20:32:14.094Z,57.24
2022-08-10T20:34:57.137Z,57.30
2022-08-10T20:38:03.014Z,57.59
2022-08-10T20:40:29.260Z,57.68
2022-08-10T20:42:59.576Z,58.09
2022-08-10T20:45:41.525Z,58.28
2022-08-10T20:48:28.866Z,58.71
2022-08-10T20:51:00.959Z,58.62
2022-08-10T20:53:31.999Z,58.10
2022-08-10T20:56:08.380Z,58.76
2022-08-10T20:58:54.652Z,58.92
2022-08-10T21:02:06.116Z,59.11
2022-08-10T21:04:53.370Z,59.39
2022-08-10T21:07:50.571Z,60.23
2022-08-10T21:10:26.389Z,60.47
2022-08-10T21:13:12.142Z,60.98
2022-08-10T21:16:14.082Z,61.34
2022-08-10T21:19:00.234Z,60.88
2022-08-10T21:21:41.980Z,61.43
2022-08-10T21:24:19.950Z,61.62
2022-08-10T21:27:02.505Z,62.00
2022-08-10T21:30:09.303Z,62.00
2022-08-10T21:32:59.086Z,62.06
2022-08-10T21:35:42.644Z,62.37
2022-08-10T21:38:37.966Z,62.98
2022-08-10T21:41:57.157Z,63.54
2022-08-10T21:45:17.108Z,63.08
2022-08-10T21:48:18.120Z,63.12
2022-08-10T21:55:13.462Z,63.91
2022-08-10T21:58:12.295Z,62.84
2022-08-10T22:01:10.532Z,63.61
2022-08-10T22:03:59.823Z,62.95
2022-08-10T22:06:52.344Z,62.52
2022-08-10T22:09:47.555Z,62.37
2022-08-10T22:12:36.403Z,62.58
2022-08-10T22:16:03.177Z,62.61
2022-08-10T22:18:35.015Z,63.23
2022-08-10T22:21:54.484Z,64.23
2022-08-10T22:25:24.121Z,63.68
2022-08-10T22:28:13.629Z,63.90
2022-08-10T22:31:28.837Z,63.38
2022-08-10T22:31:32.548Z,64.43
2022-08-10T22:34:42.859Z,64.52
2022-08-10T22:37:52.111Z,64.84
2022-08-10T22:40:40.879Z,64.61
2022-08-10T22:43:36.205Z,64.89
2022-08-10T22:46:31.090Z,64.98
2022-08-10T22:49:01.868Z,63.85
2022-08-10T22:51:36.679Z,64.38
2022-08-10T22:54:49.997Z,63.92
2022-08-10T22:57:36.293Z,63.85
2022-08-10T23:00:20.431Z,63.77
2022-08-10T23:03:21.834Z,63.59
2022-08-10T23:06:04.008Z,63.42
2022-08-10T23:08:43.881Z,63.79
2022-08-10T23:11:26.589Z,63.28
2022-08-10T23:14:00.951Z,63.37
2022-08-10T23:16:50.210Z,63.95
2022-08-10T23:19:25.139Z,64.15
2022-08-10T23:22:04.151Z,64.18
2022-08-10T23:24:38.738Z,64.86
2022-08-10T23:27:12.920Z,64.89
2022-08-10T23:30:10.003Z,64.04
2022-08-10T23:32:43.963Z,64.45
2022-08-10T23:36:31.339Z,64.69
2022-08-10T23:38:05.170Z,64.96
2022-08-10T23:40:34.301Z,65.13
2022-08-10T23:43:03.499Z,65.97
2022-08-10T23:45:53.080Z,65.92
2022-08-10T23:48:23.243Z,66.30
2022-08-10T23:50:59.628Z,66.73
2022-08-10T23:53:32.000Z,67.03
2022-08-10T23:56:08.339Z,67.23
2022-08-10T23:58:41.106Z,68.06
